Time;durP1;ratioP1;P1;durP2;ratioP2;P2;SDS_P1;SDS_P2;PMS_P1;PMS_P2;Temp;Humidity;BMP_temperature;BMP_pressure;BME280_temperature;BME280_humidity;BME280_pressure;Samples;Min_cycle;Max_cycle;Signal;HPM_P1;HPM_P2
2022/04/20 00:00:31;;;;;;;4.50;3.13;;;;;;;5.81;100.00;101047.69;5098983;28;20053;-49
2022/04/20 00:02:56;;;;;;;4.28;3.08;;;;;;;5.76;100.00;101044.66;5092137;28;20524;-49
2022/04/20 00:05:21;;;;;;;7.00;4.03;;;;;;;5.72;100.00;101045.09;5088868;28;20106;-49
2022/04/20 00:07:47;;;;;;;6.88;3.78;;;;;;;5.70;100.00;101047.84;5094223;28;20372;-47
2022/04/20 00:10:12;;;;;;;6.70;4.00;;;;;;;5.68;100.00;101041.94;5094840;28;20028;-52
2022/04/20 00:12:37;;;;;;;8.75;4.50;;;;;;;5.66;100.00;101043.88;5100645;28;20035;-51
2022/04/20 00:15:03;;;;;;;6.95;4.38;;;;;;;5.65;100.00;101047.47;5100321;28;20036;-52
2022/04/20 00:17:29;;;;;;;6.22;4.13;;;;;;;5.71;100.00;101048.72;5092800;28;20559;-49
2022/04/20 00:19:54;;;;;;;4.82;3.65;;;;;;;5.67;100.00;101050.78;5095303;28;20031;-49
2022/04/20 00:22:19;;;;;;;7.97;5.03;;;;;;;5.63;100.00;101049.44;5090213;28;20050;-47
2022/04/20 00:24:45;;;;;;;5.88;4.45;;;;;;;5.60;100.00;101053.19;5101663;28;20456;-47
2022/04/20 00:27:10;;;;;;;8.52;4.80;;;;;;;5.62;100.00;101050.38;5100094;28;20035;-49
2022/04/20 00:29:35;;;;;;;16.85;5.93;;;;;;;5.57;100.00;101056.06;5091704;28;20047;-49
2022/04/20 00:32:01;;;;;;;10.98;7.13;;;;;;;5.57;100.00;101055.25;5099173;28;20027;-46
2022/04/20 00:34:26;;;;;;;8.75;5.72;;;;;;;5.53;100.00;101054.72;5092762;28;20028;-47
2022/04/20 00:36:53;;;;;;;8.65;6.15;;;;;;;5.47;100.00;101047.38;5096050;28;20538;-48
2022/04/20 00:39:19;;;;;;;8.07;5.60;;;;;;;5.46;100.00;101049.19;5100838;28;20075;-47
2022/04/20 00:41:44;;;;;;;13.23;5.15;;;;;;;5.43;100.00;101056.56;5098408;28;20028;-49
2022/04/20 00:44:11;;;;;;;11.85;7.47;;;;;;;5.44;100.00;101052.94;5099609;28;20429;-48
2022/04/20 00:46:37;;;;;;;12.43;5.38;;;;;;;5.44;100.00;101050.31;5096628;28;20050;-48
2022/04/20 00:49:04;;;;;;;9.07;5.60;;;;;;;5.35;100.00;101049.38;5092443;28;20027;-50
2022/04/20 00:51:30;;;;;;;10.77;7.22;;;;;;;5.33;100.00;101046.06;5096978;28;20047;-48
2022/04/20 00:54:00;;;;;;;10.77;5.75;;;;;;;5.32;100.00;101043.56;5095983;28;20082;-47
2022/04/20 00:56:26;;;;;;;14.18;7.38;;;;;;;5.30;100.00;101051.59;5104743;28;20110;-47
2022/04/20 00:58:53;;;;;;;14.43;6.93;;;;;;;5.29;100.00;101039.41;5097279;28;20034;-51
2022/04/20 01:01:19;;;;;;;12.40;6.35;;;;;;;5.23;100.00;101035.56;5099818;28;20509;-49
2022/04/20 01:03:44;;;;;;;12.75;7.32;;;;;;;5.18;100.00;101042.22;5096577;28;20040;-49
2022/04/20 01:06:09;;;;;;;14.80;8.57;;;;;;;5.20;100.00;101048.19;5098431;28;20102;-52
2022/04/20 01:08:35;;;;;;;13.23;9.10;;;;;;;5.27;100.00;101043.16;5094303;28;20432;-48
2022/04/20 01:11:01;;;;;;;14.63;8.38;;;;;;;5.27;100.00;101035.28;5096430;28;20035;-51
2022/04/20 01:13:27;;;;;;;14.13;9.45;;;;;;;5.26;100.00;101034.44;5098340;28;20126;-49
2022/04/20 01:15:53;;;;;;;13.68;8.18;;;;;;;5.21;100.00;101036.69;5094325;28;20107;-50
2022/04/20 01:18:18;;;;;;;23.40;10.52;;;;;;;5.24;100.00;101031.97;5093474;28;20347;-50
2022/04/20 01:20:44;;;;;;;14.05;8.30;;;;;;;5.21;100.00;101037.53;5104811;28;20051;-48
2022/04/20 01:23:12;;;;;;;15.45;8.93;;;;;;;5.18;100.00;101029.91;5108530;28;20028;-50
2022/04/20 01:25:38;;;;;;;20.08;9.70;;;;;;;5.16;100.00;101029.25;5100492;28;20024;-47
2022/04/20 01:28:05;;;;;;;17.92;10.25;;;;;;;5.13;100.00;101029.50;5089962;28;20036;-50
2022/04/20 01:30:31;;;;;;;13.60;8.40;;;;;;;5.14;100.00;101032.97;5098292;28;20024;-48
2022/04/20 01:32:57;;;;;;;21.63;11.35;;;;;;;5.20;100.00;101025.34;5107400;28;20444;-48
2022/04/20 01:35:23;;;;;;;30.58;11.65;;;;;;;5.29;100.00;101025.44;5092659;28;20024;-49
2022/04/20 01:37:52;;;;;;;21.10;11.05;;;;;;;5.27;100.00;101024.75;5092709;28;20035;-49
2022/04/20 01:40:18;;;;;;;18.63;11.88;;;;;;;5.24;100.00;101026.72;5100482;28;20020;-47
2022/04/20 01:42:43;;;;;;;21.95;11.73;;;;;;;5.30;100.00;101025.31;5103659;28;20039;-51
2022/04/20 01:45:09;;;;;;;22.23;11.52;;;;;;;5.32;100.00;101027.78;5103228;28;20075;-46
2022/04/20 01:47:34;;;;;;;18.13;11.45;;;;;;;5.31;100.00;101031.41;5091434;28;20115;-48
2022/04/20 01:49:59;;;;;;;21.38;11.60;;;;;;;5.30;100.00;101035.84;5099044;28;20032;-45
2022/04/20 01:52:25;;;;;;;19.88;12.10;;;;;;;5.34;100.00;101028.47;5103099;28;20024;-49
2022/04/20 01:54:50;;;;;;;19.48;11.48;;;;;;;5.38;100.00;101028.06;5105773;28;20032;-51
2022/04/20 01:57:16;;;;;;;19.42;11.73;;;;;;;5.37;100.00;101030.81;5094310;28;20024;-48
2022/04/20 01:59:41;;;;;;;19.15;11.60;;;;;;;5.33;100.00;101027.66;5104596;28;20046;-50
2022/04/20 02:04:50;;;;;;;19.88;11.68;;;;;;;5.34;100.00;101026.66;5091464;28;20092;-51
2022/04/20 02:07:15;;;;;;;20.38;10.80;;;;;;;5.31;100.00;101024.34;5095790;28;20438;-51
2022/04/20 02:09:41;;;;;;;22.92;12.15;;;;;;;5.32;100.00;101026.00;5098934;28;20054;-48
2022/04/20 02:12:08;;;;;;;23.02;11.50;;;;;;;5.38;100.00;101021.97;5097455;28;20468;-47
2022/04/20 02:14:33;;;;;;;25.15;12.73;;;;;;;5.48;100.00;101017.50;5095162;28;20031;-50
2022/04/20 02:16:59;;;;;;;20.95;11.55;;;;;;;5.45;100.00;101016.00;5100202;28;20031;-52
2022/04/20 02:19:24;;;;;;;23.10;14.23;;;;;;;5.47;100.00;101021.94;5099093;28;20023;-52
2022/04/20 02:21:49;;;;;;;23.52;13.57;;;;;;;5.48;100.00;101017.50;5108828;28;20033;-51
2022/04/20 02:24:15;;;;;;;23.05;13.27;;;;;;;5.52;100.00;101016.22;5101910;28;20077;-47
2022/04/20 02:26:40;;;;;;;20.08;11.40;;;;;;;5.59;100.00;101022.56;5107010;28;20119;-50
2022/04/20 02:29:06;;;;;;;23.13;13.90;;;;;;;5.61;100.00;101011.91;5104951;28;20031;-51
2022/04/20 02:31:31;;;;;;;26.20;13.93;;;;;;;5.65;100.00;101018.53;5092136;28;20400;-46
2022/04/20 02:33:57;;;;;;;20.83;11.77;;;;;;;5.70;100.00;101016.28;5094680;28;20457;-50
2022/04/20 02:36:22;;;;;;;19.27;12.02;;;;;;;5.67;100.00;101012.13;5097413;28;20461;-48
2022/04/20 02:38:48;;;;;;;22.45;11.80;;;;;;;5.65;100.00;101005.38;5094356;28;20036;-47
2022/04/20 02:41:14;;;;;;;24.50;12.48;;;;;;;5.63;100.00;101009.97;5106662;28;20415;-47
2022/04/20 02:43:40;;;;;;;19.38;12.07;;;;;;;5.69;100.00;101012.00;5105318;28;20031;-47
2022/04/20 02:46:06;;;;;;;21.65;11.68;;;;;;;5.74;100.00;101011.56;5092625;28;20031;-47
2022/04/20 02:48:31;;;;;;;22.23;14.43;;;;;;;5.78;100.00;101015.56;5102132;28;20040;-48
2022/04/20 02:50:57;;;;;;;26.08;12.32;;;;;;;5.81;100.00;101005.56;5097742;28;20038;-51
2022/04/20 02:53:22;;;;;;;23.73;12.55;;;;;;;5.79;100.00;101007.53;5117506;28;20066;-49
2022/04/20 02:55:48;;;;;;;19.70;12.38;;;;;;;5.73;100.00;101010.75;5099739;28;20189;-49
2022/04/20 02:58:14;;;;;;;33.88;14.45;;;;;;;5.69;100.00;101009.38;5097781;28;20035;-49
2022/04/20 03:00:39;;;;;;;17.92;11.20;;;;;;;5.65;100.00;101008.00;5099973;28;20040;-52
2022/04/20 03:03:05;;;;;;;27.88;14.65;;;;;;;5.61;100.00;101012.72;5103240;28;20030;-48
2022/04/20 03:05:30;;;;;;;16.63;10.77;;;;;;;5.60;100.00;101016.34;5090278;28;20040;-48
2022/04/20 03:07:55;;;;;;;21.08;12.25;;;;;;;5.67;100.00;101011.31;5092708;28;20038;-48
2022/04/20 03:10:22;;;;;;;28.85;13.43;;;;;;;5.67;100.00;101017.41;5080962;28;20093;-48
2022/04/20 03:12:49;;;;;;;19.48;13.25;;;;;;;5.65;100.00;101016.75;5089850;28;20122;-51
2022/04/20 03:15:14;;;;;;;22.85;13.23;;;;;;;5.61;100.00;101012.72;5102331;28;20023;-50
2022/04/20 03:17:40;;;;;;;20.48;11.82;;;;;;;5.60;100.00;101013.72;5099623;28;20097;-53
2022/04/20 03:20:06;;;;;;;23.55;11.95;;;;;;;5.51;100.00;101021.66;5097334;28;20030;-53
2022/04/20 03:22:32;;;;;;;21.80;13.38;;;;;;;5.46;100.00;101020.25;5100908;28;20029;-49
2022/04/20 03:24:57;;;;;;;22.48;12.70;;;;;;;5.50;100.00;101017.34;5100460;28;20407;-47
2022/04/20 03:27:23;;;;;;;21.63;12.38;;;;;;;5.50;100.00;101020.81;5102770;28;20910;-47
2022/04/20 03:29:48;;;;;;;24.30;13.15;;;;;;;5.49;100.00;101018.31;5095226;28;20035;-50
2022/04/20 03:32:15;;;;;;;20.52;13.77;;;;;;;5.44;100.00;101016.13;5099179;28;20036;-50
2022/04/20 03:34:41;;;;;;;24.02;12.68;;;;;;;5.42;100.00;101012.81;5081008;28;20016;-47
2022/04/20 03:37:08;;;;;;;22.83;11.43;;;;;;;5.43;100.00;101010.03;5095524;28;20036;-48
2022/04/20 03:39:34;;;;;;;24.70;14.80;;;;;;;5.49;100.00;101013.06;5086496;28;20118;-51
2022/04/20 03:42:00;;;;;;;25.95;14.15;;;;;;;5.58;100.00;101007.78;5099131;28;20127;-47
2022/04/20 03:44:26;;;;;;;24.48;13.10;;;;;;;5.60;100.00;101011.09;5099673;28;20077;-49
2022/04/20 03:46:52;;;;;;;21.83;13.38;;;;;;;5.62;100.00;101008.28;5099538;28;20107;-48
2022/04/20 03:49:18;;;;;;;20.20;11.82;;;;;;;5.57;100.00;101007.91;5098811;28;20429;-48
2022/04/20 03:51:45;;;;;;;29.60;13.43;;;;;;;5.58;100.00;101001.69;5098137;28;20040;-51
2022/04/20 03:54:11;;;;;;;25.13;14.35;;;;;;;5.62;100.00;101008.28;5103779;28;20131;-49
2022/04/20 03:59:20;;;;;;;24.40;14.32;;;;;;;5.60;100.00;100999.72;5103237;28;20502;-48
2022/04/20 04:01:45;;;;;;;27.17;15.02;;;;;;;5.62;100.00;101014.38;5098899;28;20028;-50
2022/04/20 04:04:11;;;;;;;25.50;14.85;;;;;;;5.68;100.00;101007.72;5099275;28;20024;-48
2022/04/20 04:06:36;;;;;;;24.83;14.15;;;;;;;5.67;100.00;100998.97;5100119;28;20495;-51
2022/04/20 04:09:02;;;;;;;33.97;16.20;;;;;;;5.74;100.00;100995.78;5100414;28;20047;-46
2022/04/20 04:11:27;;;;;;;34.63;15.20;;;;;;;5.78;100.00;101002.41;5099718;28;20043;-47
2022/04/20 04:13:52;;;;;;;30.35;15.68;;;;;;;5.78;100.00;100992.72;5097283;28;20032;-46
2022/04/20 04:16:18;;;;;;;26.92;15.95;;;;;;;5.77;100.00;100995.50;5104139;28;20036;-46
2022/04/20 04:18:43;;;;;;;31.95;14.07;;;;;;;5.78;100.00;101002.41;5097879;28;20088;-47
2022/04/20 04:21:08;;;;;;;25.88;15.23;;;;;;;5.78;100.00;100999.75;5099315;28;20073;-50
2022/04/20 04:23:34;;;;;;;32.60;16.13;;;;;;;5.76;100.00;100999.94;5101080;28;20420;-46
2022/04/20 04:25:59;;;;;;;26.77;14.35;;;;;;;5.75;100.00;101010.59;5098609;28;20569;-47
2022/04/20 04:28:25;;;;;;;32.85;16.58;;;;;;;5.80;100.00;100997.81;5099442;28;20032;-47
2022/04/20 04:30:50;;;;;;;32.53;16.63;;;;;;;5.86;100.00;101007.75;5099275;28;20027;-47
2022/04/20 04:33:16;;;;;;;32.42;15.50;;;;;;;5.89;100.00;101004.84;5102311;28;20059;-45
2022/04/20 04:35:41;;;;;;;35.53;16.15;;;;;;;5.94;100.00;101007.03;5105864;28;20100;-50
2022/04/20 04:38:06;;;;;;;33.13;16.08;;;;;;;5.96;100.00;101011.19;5098949;28;20032;-50
2022/04/20 04:40:32;;;;;;;24.90;13.45;;;;;;;5.96;100.00;101007.72;5104504;28;20061;-46
2022/04/20 04:42:57;;;;;;;27.85;17.83;;;;;;;5.99;100.00;101010.06;5102123;28;20387;-47
2022/04/20 04:50:51;;;;;;;24.55;15.80;;;;;;;6.02;100.00;101020.31;5089753;28;20047;-47
2022/04/20 04:53:17;;;;;;;32.45;15.35;;;;;;;6.05;100.00;101022.66;5098204;28;20464;-47
2022/04/20 04:55:42;;;;;;;32.60;16.52;;;;;;;6.08;100.00;101017.91;5093718;28;20082;-50
2022/04/20 04:58:08;;;;;;;26.13;15.50;;;;;;;6.12;100.00;101028.97;5099661;28;20625;-49
2022/04/20 05:00:33;;;;;;;35.08;16.45;;;;;;;6.14;100.00;101026.19;5105500;28;20051;-46
2022/04/20 05:02:58;;;;;;;28.30;15.48;;;;;;;6.18;100.00;101020.47;5104723;28;20030;-47
2022/04/20 05:05:24;;;;;;;26.83;15.30;;;;;;;6.21;100.00;101027.25;5085960;28;20443;-48
2022/04/20 05:07:54;;;;;;;32.53;16.38;;;;;;;6.22;100.00;101029.75;5101778;28;20035;-46
2022/04/20 05:10:22;;;;;;;29.45;15.77;;;;;;;6.25;100.00;101028.63;5098980;28;20027;-52
2022/04/20 05:12:48;;;;;;;30.08;15.20;;;;;;;6.27;100.00;101034.53;5103474;28;20027;-48
2022/04/20 05:15:14;;;;;;;33.10;15.90;;;;;;;6.27;100.00;101038.03;5101941;28;20031;-50
2022/04/20 05:17:39;;;;;;;30.10;16.02;;;;;;;6.27;100.00;101038.03;5101157;28;20064;-49
2022/04/20 05:20:06;;;;;;;37.97;17.33;;;;;;;6.28;100.00;101037.03;5103680;28;20039;-45
2022/04/20 05:22:32;;;;;;;32.30;15.60;;;;;;;6.32;100.00;101042.81;5105447;28;20365;-49
2022/04/20 05:24:57;;;;;;;31.73;17.48;;;;;;;6.34;100.00;101041.69;5100785;28;20035;-51
2022/04/20 05:27:22;;;;;;;38.20;18.27;;;;;;;6.38;100.00;101046.69;5098197;28;20157;-53
2022/04/20 05:29:48;;;;;;;26.52;16.00;;;;;;;6.40;100.00;101052.63;5101346;28;20058;-48
2022/04/20 05:32:13;;;;;;;35.17;16.30;;;;;;;6.42;100.00;101058.56;5097919;28;20023;-46
2022/04/20 05:34:39;;;;;;;28.42;14.50;;;;;;;6.45;100.00;101055.63;5097909;28;20027;-49
2022/04/20 05:42:33;;;;;;;33.60;15.93;;;;;;;6.55;100.00;101056.38;5098738;28;20046;-49
2022/04/20 05:44:58;;;;;;;41.70;17.40;;;;;;;6.58;100.00;101066.63;5098285;28;20092;-49
2022/04/20 05:47:23;;;;;;;32.05;15.95;;;;;;;6.63;100.00;101071.44;5099625;28;20384;-48
2022/04/20 05:49:49;;;;;;;31.20;15.88;;;;;;;6.65;100.00;101069.50;5099017;28;20038;-48
2022/04/20 05:52:14;;;;;;;32.70;17.75;;;;;;;6.67;100.00;101065.72;5095580;28;20231;-46
2022/04/20 05:54:39;;;;;;;30.73;17.42;;;;;;;6.69;100.00;101066.41;5097282;28;20032;-46
2022/04/20 05:57:05;;;;;;;30.15;14.23;;;;;;;6.70;100.00;101073.31;5102852;28;20063;-48
2022/04/20 05:59:31;;;;;;;31.80;16.08;;;;;;;6.72;100.00;101076.66;5099286;28;20030;-48
2022/04/20 06:01:56;;;;;;;23.90;14.52;;;;;;;6.73;100.00;101074.84;5095596;28;20027;-49
2022/04/20 06:04:21;;;;;;;31.83;14.75;;;;;;;6.73;100.00;101077.47;5092974;28;20034;-49
2022/04/20 06:06:47;;;;;;;28.35;14.95;;;;;;;6.73;100.00;101073.00;5100328;28;20052;-49
2022/04/20 06:09:12;;;;;;;25.27;13.63;;;;;;;6.71;100.00;101069.72;5098171;28;20399;-49
2022/04/20 06:11:37;;;;;;;33.42;14.65;;;;;;;6.73;100.00;101072.19;5093591;28;20100;-47
2022/04/20 06:14:03;;;;;;;27.73;14.98;;;;;;;6.72;100.00;101066.09;5096681;28;20032;-48
2022/04/20 06:16:28;;;;;;;25.10;13.85;;;;;;;6.74;100.00;101073.88;5100193;28;20024;-48
2022/04/20 06:18:56;;;;;;;27.70;13.38;;;;;;;6.75;100.00;101070.25;5094954;28;20031;-45
2022/04/20 06:21:21;;;;;;;25.63;14.63;;;;;;;6.77;100.00;101070.94;5096869;28;20051;-48
2022/04/20 06:23:47;;;;;;;31.92;13.68;;;;;;;6.80;100.00;101069.78;5099911;28;20063;-51
2022/04/20 06:26:12;;;;;;;29.30;13.48;;;;;;;6.83;100.00;101066.84;5098398;28;20159;-49
2022/04/20 06:28:38;;;;;;;27.88;14.40;;;;;;;6.87;100.00;101069.03;5100441;28;20034;-45
2022/04/20 06:31:05;;;;;;;31.60;12.65;;;;;;;6.91;100.00;101066.91;5096756;28;20031;-49
2022/04/20 06:33:30;;;;;;;24.23;12.57;;;;;;;6.96;100.00;101065.47;5098774;28;20031;-46
2022/04/20 06:35:57;;;;;;;23.83;13.20;;;;;;;7.01;100.00;101062.38;5097237;28;20498;-46
2022/04/20 06:38:22;;;;;;;28.35;12.77;;;;;;;7.07;100.00;101063.56;5102743;28;20037;-48
2022/04/20 06:40:48;;;;;;;23.08;13.20;;;;;;;7.14;100.00;101054.88;5097076;28;20110;-49
2022/04/20 06:43:14;;;;;;;23.48;13.63;;;;;;;7.22;100.00;101060.22;5083462;28;20461;-47
2022/04/20 06:45:39;;;;;;;27.33;13.68;;;;;;;7.31;100.00;101060.28;5097429;28;20063;-47
2022/04/20 06:48:05;;;;;;;30.33;13.05;;;;;;;7.40;100.00;101059.34;5107063;28;20439;-46
2022/04/20 06:50:30;;;;;;;23.85;10.73;;;;;;;7.47;100.00;101055.09;5107850;28;20376;-49
2022/04/20 06:58:33;;;;;;;19.77;9.70;;;;;;;7.61;100.00;101049.22;5089562;28;20352;-46
2022/04/20 07:00:59;;;;;;;23.75;10.48;;;;;;;7.67;100.00;101039.88;5099444;28;20499;-45
2022/04/20 07:03:24;;;;;;;27.85;10.95;;;;;;;7.69;100.00;101032.59;5099813;28;20104;-47
2022/04/20 07:05:50;;;;;;;17.05;10.48;;;;;;;7.71;100.00;101030.63;5095263;28;20019;-48
2022/04/20 07:08:15;;;;;;;20.70;9.23;;;;;;;7.74;100.00;101029.47;5095604;28;20386;-49
2022/04/20 07:10:41;;;;;;;20.33;10.60;;;;;;;7.80;100.00;101028.88;5092174;28;20563;-49
2022/04/20 07:13:07;;;;;;;21.15;11.57;;;;;;;7.88;100.00;101028.06;5091739;28;20024;-46
2022/04/20 07:15:32;;;;;;;12.38;8.60;;;;;;;7.96;100.00;101014.88;5094382;28;20396;-47
2022/04/20 07:17:58;;;;;;;15.27;8.45;;;;;;;8.02;100.00;101007.13;5093625;28;20055;-47
2022/04/20 07:20:23;;;;;;;16.73;8.73;;;;;;;8.10;100.00;101008.97;5094131;28;20054;-47
2022/04/20 07:22:49;;;;;;;24.30;10.38;;;;;;;8.25;100.00;101011.81;5096567;28;20057;-47
2022/04/20 07:25:16;;;;;;;18.02;9.90;;;;;;;8.39;100.00;101013.84;5091188;28;20024;-47
2022/04/20 07:27:42;;;;;;;20.40;8.40;;;;;;;8.54;100.00;101011.38;5096662;28;20096;-47
2022/04/20 07:30:08;;;;;;;12.80;7.70;;;;;;;8.68;100.00;101001.97;5098127;28;20035;-47
2022/04/20 07:32:33;;;;;;;20.80;8.68;;;;;;;8.85;100.00;100993.00;5098752;28;20020;-46
2022/04/20 07:34:58;;;;;;;9.55;6.40;;;;;;;9.02;100.00;100993.81;5096209;28;20034;-48
2022/04/20 07:37:24;;;;;;;17.50;8.38;;;;;;;9.24;100.00;100987.00;5096182;28;20047;-49
2022/04/20 07:39:49;;;;;;;19.80;9.48;;;;;;;9.37;100.00;100986.44;5093895;28;20030;-48
2022/04/20 07:42:14;;;;;;;14.18;7.28;;;;;;;9.46;100.00;100992.56;5095608;28;20116;-51
2022/04/20 07:44:40;;;;;;;18.10;8.18;;;;;;;9.53;100.00;100988.22;5094401;28;20170;-46
2022/04/20 07:47:05;;;;;;;14.88;6.63;;;;;;;9.56;100.00;100977.28;5101856;28;20043;-48
2022/04/20 07:52:19;;;;;;;18.13;6.10;;;;;;;9.96;100.00;100976.25;5098791;28;20043;-49
2022/04/20 07:54:44;;;;;;;12.48;6.47;;;;;;;9.95;100.00;100971.13;5096806;28;20031;-46
2022/04/20 07:57:11;;;;;;;10.98;6.32;;;;;;;9.80;100.00;100976.34;5093508;28;20068;-46
2022/04/20 07:59:37;;;;;;;10.70;5.28;;;;;;;9.64;100.00;100987.84;5098948;28;20028;-48
2022/04/20 08:02:02;;;;;;;15.00;6.15;;;;;;;9.51;100.00;100977.81;5098253;28;20039;-48
2022/04/20 08:04:28;;;;;;;11.20;4.65;;;;;;;9.38;100.00;100985.47;5099639;28;20326;-50
2022/04/20 08:06:53;;;;;;;11.60;4.82;;;;;;;9.30;100.00;100975.72;5102652;28;20031;-50
2022/04/20 08:09:19;;;;;;;9.80;5.10;;;;;;;9.38;100.00;100975.69;5100012;28;20020;-51
2022/04/20 08:11:44;;;;;;;13.02;6.20;;;;;;;9.45;100.00;100981.16;5092760;28;20040;-47
2022/04/20 08:14:09;;;;;;;8.85;5.45;;;;;;;9.47;100.00;100975.66;5100609;28;20553;-51
2022/04/20 08:16:35;;;;;;;10.20;5.20;;;;;;;9.60;100.00;100976.78;5099625;28;20082;-48
2022/04/20 08:19:01;;;;;;;10.43;5.03;;;;;;;9.75;100.00;100963.63;5104712;28;20028;-46
2022/04/20 08:21:27;;;;;;;13.85;5.65;;;;;;;9.99;100.00;100961.81;5098941;28;20451;-49
2022/04/20 08:23:53;;;;;;;9.10;5.22;;;;;;;10.24;100.00;100955.34;5103173;28;20028;-47
2022/04/20 08:26:18;;;;;;;15.27;7.65;;;;;;;10.33;100.00;100956.16;5100072;28;20433;-46
2022/04/20 08:28:44;;;;;;;13.20;5.60;;;;;;;10.45;100.00;100951.25;5098510;28;20297;-47
2022/04/20 08:31:09;;;;;;;10.80;5.60;;;;;;;10.71;100.00;100948.19;5092397;28;20511;-50
2022/04/20 08:33:35;;;;;;;13.88;5.80;;;;;;;10.93;100.00;100946.50;5092527;28;20020;-49
2022/04/20 08:36:00;;;;;;;9.15;5.32;;;;;;;11.04;100.00;100958.50;5098014;28;20024;-48
2022/04/20 08:38:26;;;;;;;14.10;5.90;;;;;;;11.27;100.00;100964.53;5096772;28;20062;-47
2022/04/20 08:40:53;;;;;;;11.40;5.22;;;;;;;11.39;100.00;100967.56;5096155;28;20036;-49
2022/04/20 08:43:19;;;;;;;16.10;5.40;;;;;;;11.60;100.00;100960.66;5100425;28;20043;-50
2022/04/20 08:45:48;;;;;;;10.65;4.35;;;;;;;11.74;100.00;100970.41;5104277;28;20028;-51
2022/04/20 08:48:14;;;;;;;10.07;6.40;;;;;;;11.83;100.00;100950.72;5083152;28;20399;-48
2022/04/20 08:50:39;;;;;;;9.00;4.03;;;;;;;11.92;100.00;100951.44;5099941;28;20468;-52
2022/04/20 08:53:05;;;;;;;12.40;4.45;;;;;;;12.11;100.00;100950.03;5100508;28;20098;-53
2022/04/20 08:55:31;;;;;;;7.70;3.67;;;;;;;12.08;100.00;100942.41;5104199;28;20149;-53
2022/04/20 08:57:57;;;;;;;10.10;4.07;;;;;;;12.23;100.00;100945.81;5102594;28;20387;-50
2022/04/20 09:00:25;;;;;;;5.78;3.55;;;;;;;12.40;100.00;100939.22;5099204;28;20032;-53
2022/04/20 09:02:52;;;;;;;9.18;4.55;;;;;;;12.40;100.00;100933.91;5096817;28;20028;-48
2022/04/20 09:05:18;;;;;;;7.40;3.33;;;;;;;12.23;100.00;100929.88;5094611;28;20531;-48
2022/04/20 09:07:44;;;;;;;6.97;4.13;;;;;;;12.16;100.00;100937.00;5098363;28;20056;-52
2022/04/20 09:10:10;;;;;;;7.82;4.00;;;;;;;12.15;100.00;100933.47;5103568;28;20555;-47
2022/04/20 09:12:41;;;;;;;10.85;4.30;;;;;;;12.13;100.00;100924.91;5099894;28;20119;-44
2022/04/20 09:15:07;;;;;;;4.55;3.60;;;;;;;12.27;100.00;100914.38;5101457;28;20387;-46
2022/04/20 09:17:41;;;;;;;7.22;4.55;;;;;;;12.52;100.00;100928.91;5100315;28;20042;-49
2022/04/20 09:20:07;;;;;;;6.07;4.07;;;;;;;12.85;100.00;100922.97;5092733;28;20465;-53
2022/04/20 09:22:34;;;;;;;4.30;3.03;;;;;;;12.95;100.00;100922.63;5093499;28;20031;-48
2022/04/20 09:25:08;;;;;;;14.88;3.13;;;;;;;13.22;100.00;100920.97;5092429;28;20072;-50
2022/04/20 09:27:41;;;;;;;8.52;3.65;;;;;;;13.41;100.00;100920.25;5092355;28;20036;-48
2022/04/20 09:30:15;;;;;;;12.20;3.80;;;;;;;13.60;100.00;100913.31;5092350;28;20032;-51
2022/04/20 09:32:45;;;;;;;12.10;3.75;;;;;;;13.80;100.00;100913.41;5104226;28;20369;-49
2022/04/20 09:35:16;;;;;;;8.23;3.28;;;;;;;13.99;100.00;100911.78;5101851;28;20539;-50
2022/04/20 09:37:43;;;;;;;7.85;2.30;;;;;;;14.16;100.00;100914.88;5097251;28;20068;-48
2022/04/20 09:40:11;;;;;;;4.35;2.60;;;;;;;14.31;100.00;100899.50;5093728;28;20035;-46
2022/04/20 09:42:38;;;;;;;6.43;3.45;;;;;;;14.48;100.00;100901.75;5103884;28;20483;-51
2022/04/20 09:45:08;;;;;;;6.05;3.78;;;;;;;14.58;100.00;100908.34;5107975;28;20047;-54
2022/04/20 09:50:23;;;;;;;7.63;3.05;;;;;;;14.80;100.00;100902.78;5103512;28;20035;-48
2022/04/20 09:52:50;;;;;;;7.68;2.97;;;;;;;15.00;100.00;100894.72;5098164;28;20027;-49
2022/04/20 09:55:26;;;;;;;9.82;3.75;;;;;;;14.72;100.00;100893.16;5101282;28;20032;-48
2022/04/20 09:57:51;;;;;;;8.70;2.80;;;;;;;14.36;100.00;100894.38;5101473;28;20032;-51
2022/04/20 10:00:16;;;;;;;7.55;2.67;;;;;;;14.30;100.00;100886.38;5100141;28;20020;-49
2022/04/20 10:02:49;;;;;;;9.73;3.38;;;;;;;14.06;100.00;100891.28;5098863;28;20040;-46
2022/04/20 10:05:18;;;;;;;7.07;2.63;;;;;;;14.26;100.00;100885.97;5104838;28;20123;-46
2022/04/20 10:07:43;;;;;;;5.50;3.15;;;;;;;14.69;100.00;100882.03;5097847;28;20078;-52
2022/04/20 10:10:10;;;;;;;5.93;2.53;;;;;;;15.05;100.00;100874.38;5099694;28;20059;-50
2022/04/20 10:12:38;;;;;;;5.68;2.30;;;;;;;15.25;100.00;100881.47;5092719;28;20131;-53
2022/04/20 10:17:53;;;;;;;7.85;3.10;;;;;;;15.24;100.00;100877.16;5095062;28;20039;-48
2022/04/20 10:20:20;;;;;;;6.97;2.50;;;;;;;15.47;100.00;100872.13;5095133;28;20035;-48
2022/04/20 10:22:47;;;;;;;6.20;2.97;;;;;;;15.56;100.00;100867.34;5098016;28;20116;-47
2022/04/20 10:25:13;;;;;;;8.23;3.63;;;;;;;15.54;100.00;100874.78;5098472;28;20042;-53
2022/04/20 10:27:46;;;;;;;8.63;2.92;;;;;;;15.61;100.00;100870.19;5096424;28;20038;-51
2022/04/20 10:30:52;;;;;;;8.38;2.45;;;;;;;16.04;100.00;100861.50;5099319;28;20392;-52
2022/04/20 10:33:23;;;;;;;4.50;2.53;;;;;;;16.36;100.00;100872.13;5101938;28;20024;-47
2022/04/20 10:36:14;;;;;;;5.88;2.78;;;;;;;16.45;100.00;100859.31;5105610;28;20036;-47
2022/04/20 10:38:40;;;;;;;6.55;2.28;;;;;;;16.27;100.00;100847.53;5100654;28;20027;-47
2022/04/20 10:41:06;;;;;;;5.88;3.58;;;;;;;16.02;100.00;100854.75;5077404;28;20543;-48
2022/04/20 10:43:34;;;;;;;4.55;2.00;;;;;;;16.37;100.00;100855.06;5093258;28;20031;-46
2022/04/20 10:46:17;;;;;;;7.18;2.28;;;;;;;16.70;100.00;100854.75;5089923;28;20473;-48
2022/04/20 10:48:51;;;;;;;3.35;2.42;;;;;;;16.74;100.00;100855.09;5097303;28;20039;-48
2022/04/20 10:51:22;;;;;;;5.03;2.08;;;;;;;16.73;100.00;100848.13;5094890;28;20388;-51
2022/04/20 10:53:50;;;;;;;4.97;2.42;;;;;;;16.60;100.00;100849.09;5090505;28;20043;-54
2022/04/20 10:56:17;;;;;;;3.00;2.10;;;;;;;16.18;100.00;100834.66;5082157;28;20032;-49
2022/04/20 10:59:05;;;;;;;4.80;3.00;;;;;;;16.01;100.00;100845.09;5095926;28;20428;-50
2022/04/20 11:01:30;;;;;;;5.80;2.55;;;;;;;16.18;100.00;100840.81;5093217;28;20062;-49
2022/04/20 11:04:02;;;;;;;5.60;3.92;;;;;;;16.47;100.00;100851.88;5096409;28;20547;-50
2022/04/20 11:06:28;;;;;;;8.27;2.08;;;;;;;16.76;100.00;100843.13;5088878;28;20116;-50
2022/04/20 11:08:58;;;;;;;4.88;2.53;;;;;;;17.11;100.00;100839.03;5091380;28;20058;-53
2022/04/20 11:20:07;;;;;;;3.97;2.22;;;;;;;18.39;100.00;100820.84;5094177;28;20035;-49
2022/04/20 11:22:44;;;;;;;4.05;2.08;;;;;;;18.23;100.00;100815.13;5093969;28;20024;-47
2022/04/20 11:25:09;;;;;;;4.97;2.65;;;;;;;17.65;100.00;100816.63;5097441;28;20032;-54
2022/04/20 11:27:36;;;;;;;5.05;2.03;;;;;;;17.21;100.00;100816.03;5093915;28;20028;-54
2022/04/20 11:30:04;;;;;;;6.43;2.40;;;;;;;17.26;100.00;100804.63;5072727;28;20381;-47
2022/04/20 11:32:31;;;;;;;5.18;1.92;;;;;;;17.64;100.00;100798.91;5096659;28;20039;-48
2022/04/20 11:35:07;;;;;;;3.08;2.15;;;;;;;18.35;100.00;100809.72;5097562;28;20027;-47
2022/04/20 11:37:33;;;;;;;3.45;1.80;;;;;;;18.60;100.00;100805.97;5096738;28;20547;-48
2022/04/20 11:39:59;;;;;;;4.13;3.13;;;;;;;18.46;100.00;100805.44;5098374;28;20115;-50
2022/04/20 11:42:25;;;;;;;9.95;2.60;;;;;;;18.02;100.00;100808.47;5096382;28;20139;-47
2022/04/20 11:44:50;;;;;;;5.30;3.08;;;;;;;17.55;100.00;100802.97;5100902;28;20077;-48
2022/04/20 11:47:17;;;;;;;3.17;1.45;;;;;;;17.17;100.00;100806.81;5071233;28;20118;-47
2022/04/20 11:49:48;;;;;;;3.03;1.67;;;;;;;17.27;100.00;100802.75;5085532;28;20192;-46